»·PEaware :: N81041 KBUR-KPOC

N81041 :: KBUR-KPOC

FLIGHT INFORMATION

Flight Status: Arrived
Operator: Privately registered:
United States
More flights under this callsign
Pilot: John C. (12173)
Aircraft: Unknown
(AA5B)
More flights by this aircraft type
Origin: KBUR Bob Hope-Burbank
United States
Destination: KPOC Brackett
United States
More flights between these airports :: More routes between these airports
Route: ELMOO8 ELMOO V186 PDZ
File this flight plan on PilotEdge
Remarks:
Altitude:
(Current/Filed)
5,000ft
Speed:
(Current/Filed)
130kts
Departed: 04-Feb-19 11:07 AM
Arrived: 04-Feb-19 11:40 AM
Distance/Time
Traveled:
29nm/0:33
Distance/Time
To Go:
Arrived

Flight Plot

Page will automatically refresh every two minutes.

Flight plan parsing failed; only flown route is shown


Map Options




Map Legend


Flown Route
Filed Route
Departure Airport
Arrival Airport
Navaid (VOR, NDB)
Fix

Horizontal Profiles

Position Reports

Time Latitude Longitude Heading Altitude Ground
Speed
04-Feb-19 10:42 34.200207 -118.358735 263 722ft 0kts
04-Feb-19 10:43 34.200207 -118.358735 263 722ft 0kts
04-Feb-19 10:44 34.200207 -118.358735 263 722ft 0kts
04-Feb-19 10:48 34.200209 -118.358739 263 722ft 0kts
04-Feb-19 10:49 34.200209 -118.358739 263 722ft 0kts
04-Feb-19 10:50 34.200209 -118.358739 263 722ft 0kts
04-Feb-19 10:51 34.200209 -118.358739 263 722ft 0kts
04-Feb-19 10:52 34.200209 -118.358739 263 722ft 0kts
04-Feb-19 10:53 34.200209 -118.358739 263 722ft 0kts
04-Feb-19 10:54 34.200209 -118.358739 263 722ft 0kts
04-Feb-19 10:55 34.200209 -118.358739 263 722ft 0kts
04-Feb-19 10:56 34.200209 -118.358739 263 722ft 0kts
04-Feb-19 10:57 34.200209 -118.358739 263 722ft 0kts
04-Feb-19 10:58 34.200209 -118.358739 263 722ft 0kts
04-Feb-19 10:59 34.200209 -118.358739 263 722ft 0kts
04-Feb-19 11:00 34.199365 -118.359338 267 720ft 11kts
04-Feb-19 11:01 34.199061 -118.364798 272 726ft 24kts
04-Feb-19 11:02 34.198892 -118.368981 215 728ft 0kts
04-Feb-19 11:03 34.198738 -118.369054 193 728ft 4kts
04-Feb-19 11:04 34.198730 -118.369056 193 728ft 0kts
04-Feb-19 11:05 34.197873 -118.367590 89 725ft 31kts
04-Feb-19 11:06 34.194432 -118.343333 136 1587ft 94kts
04-Feb-19 11:07 34.179312 -118.324860 133 2939ft 84kts
04-Feb-19 11:08 34.171327 -118.307167 112 3943ft 83kts
04-Feb-19 11:09 34.166177 -118.287860 111 4854ft 84kts
04-Feb-19 11:10 34.158292 -118.262799 115 5036ft 117kts
04-Feb-19 11:11 34.147004 -118.228357 112 4963ft 132kts
04-Feb-19 11:12 34.135422 -118.198332 114 4934ft 130kts
04-Feb-19 11:13 34.123820 -118.169758 112 4871ft 142kts
04-Feb-19 11:14 34.113135 -118.139448 102 4927ft 141kts
04-Feb-19 11:15 34.102714 -118.107943 93 4825ft 149kts
04-Feb-19 11:16 34.094374 -118.076013 106 4973ft 144kts
04-Feb-19 11:17 34.085603 -118.044295 94 4988ft 147kts
04-Feb-19 11:18 34.082178 -118.013461 95 5046ft 146kts
04-Feb-19 11:19 34.079054 -117.981789 94 5085ft 147kts
04-Feb-19 11:20 34.076346 -117.950613 96 5047ft 150kts
04-Feb-19 11:21 34.073919 -117.915161 92 5029ft 149kts
04-Feb-19 11:22 34.071993 -117.880550 90 4985ft 151kts
04-Feb-19 11:23 34.070796 -117.846516 94 4958ft 151kts
04-Feb-19 11:24 34.068926 -117.813034 89 4952ft 150kts
04-Feb-19 11:25 34.067407 -117.780087 90 4954ft 149kts
04-Feb-19 11:26 34.060800 -117.746524 109 4947ft 149kts
04-Feb-19 11:27 34.053717 -117.717676 106 4952ft 148kts
04-Feb-19 11:28 34.047406 -117.686601 101 4963ft 148kts
04-Feb-19 11:29 34.038009 -117.653005 109 4973ft 148kts
04-Feb-19 11:30 34.027655 -117.610738 106 4986ft 147kts
04-Feb-19 11:32 34.027578 -117.566663 25 4667ft 143kts
04-Feb-19 11:33 34.060911 -117.566215 333 4309ft 128kts
04-Feb-19 11:34 34.076184 -117.603211 293 3622ft 132kts
04-Feb-19 11:35 34.085044 -117.644454 274 2981ft 125kts
04-Feb-19 11:36 34.086455 -117.684578 272 2893ft 125kts
04-Feb-19 11:37 34.089188 -117.724467 271 2356ft 121kts
04-Feb-19 11:38 34.090168 -117.760006 273 1457ft 86kts
04-Feb-19 11:39 34.091299 -117.781769 274 993ft 43kts
04-Feb-19 11:40 34.090891 -117.786803 132 979ft 2kts
04-Feb-19 11:41 34.090511 -117.784567 106 986ft 0kts
04-Feb-19 11:42 34.090511 -117.784567 106 986ft 0kts

Navigation Log

Ident Type
Flight plan parsing failed, navigation log unavailable